createdAt,value
2018-08-09T00:01:13.023Z,9.90
2018-08-09T00:03:41.159Z,12.63
2018-08-09T00:06:09.323Z,12.47
2018-08-09T00:08:37.462Z,11.35
2018-08-09T00:11:05.607Z,10.73
2018-08-09T00:13:33.767Z,11.23
2018-08-09T00:16:01.908Z,10.00
2018-08-09T00:18:30.011Z,14.87
2018-08-09T00:20:58.139Z,11.83
2018-08-09T00:23:26.291Z,11.97
2018-08-09T00:25:54.413Z,11.40
2018-08-09T00:28:22.549Z,10.53
2018-08-09T00:30:51.020Z,13.07
2018-08-09T00:33:19.202Z,11.10
2018-08-09T00:35:47.328Z,12.93
2018-08-09T00:38:15.474Z,11.28
2018-08-09T00:40:44.180Z,11.67
2018-08-09T00:43:13.493Z,11.60
2018-08-09T00:45:41.625Z,12.17
2018-08-09T00:48:09.942Z,14.07
2018-08-09T00:50:38.058Z,12.75
2018-08-09T00:53:06.201Z,14.63
2018-08-09T00:55:34.323Z,11.17
2018-08-09T00:58:02.484Z,13.60
2018-08-09T01:00:31.202Z,13.67
2018-08-09T01:02:59.410Z,12.98
2018-08-09T01:05:27.511Z,12.30
2018-08-09T01:07:55.700Z,14.37
2018-08-09T01:10:24.019Z,12.40
2018-08-09T01:12:52.154Z,12.40
2018-08-09T01:15:20.319Z,14.18
2018-08-09T01:17:48.474Z,11.93
2018-08-09T01:20:18.276Z,11.27
2018-08-09T01:22:46.451Z,11.57
2018-08-09T01:25:14.658Z,11.60
2018-08-09T01:27:42.780Z,12.85
2018-08-09T01:30:11.007Z,12.33
2018-08-09T01:32:39.142Z,12.77
2018-08-09T01:35:08.016Z,13.60
2018-08-09T01:37:36.520Z,15.00
2018-08-09T01:40:05.906Z,12.13
2018-08-09T01:42:45.570Z,12.90
2018-08-09T01:45:14.088Z,11.80
2018-08-09T01:47:43.440Z,12.05
2018-08-09T01:50:11.838Z,12.03
2018-08-09T01:52:39.982Z,12.70
2018-08-09T01:55:08.108Z,14.47
2018-08-09T01:57:36.252Z,13.13
2018-08-09T02:00:05.231Z,12.80
2018-08-09T02:02:33.399Z,13.53
2018-08-09T02:05:01.658Z,11.85
2018-08-09T02:07:29.804Z,12.77
2018-08-09T02:09:57.966Z,13.63
2018-08-09T02:12:26.985Z,13.75
2018-08-09T02:14:55.123Z,14.37
2018-08-09T02:17:23.987Z,11.50
2018-08-09T02:19:52.127Z,11.57
2018-08-09T02:22:20.261Z,13.00
2018-08-09T02:24:48.407Z,11.47
2018-08-09T02:27:16.549Z,11.43
2018-08-09T02:29:44.721Z,15.30
2018-08-09T02:32:12.853Z,11.27
2018-08-09T02:34:41.031Z,11.50
2018-08-09T02:37:09.189Z,11.18
2018-08-09T02:39:37.362Z,11.33
2018-08-09T02:42:05.502Z,11.23
2018-08-09T02:44:33.719Z,12.43
2018-08-09T02:47:02.004Z,11.70
2018-08-09T02:49:30.919Z,12.27
2018-08-09T02:51:59.031Z,11.57
2018-08-09T02:54:27.197Z,13.08
2018-08-09T02:56:55.363Z,12.67
2018-08-09T02:59:23.550Z,14.30
2018-08-09T03:01:51.691Z,12.15
2018-08-09T03:04:19.821Z,15.00
2018-08-09T03:06:47.969Z,15.47
2018-08-09T03:09:16.122Z,14.25
2018-08-09T03:11:44.241Z,14.70
2018-08-09T03:14:12.505Z,19.27
2018-08-09T03:16:40.662Z,16.25
2018-08-09T03:19:08.819Z,15.60
2018-08-09T03:21:36.991Z,19.63
2018-08-09T03:24:05.194Z,16.40
2018-08-09T03:26:33.325Z,16.07
2018-08-09T03:29:01.475Z,18.30
2018-08-09T03:31:29.672Z,18.50
2018-08-09T03:33:57.868Z,19.13
2018-08-09T03:36:26.046Z,20.60
2018-08-09T03:38:54.185Z,18.15
2018-08-09T03:41:22.346Z,21.43
2018-08-09T03:43:50.522Z,16.03
2018-08-09T03:46:18.662Z,18.30
2018-08-09T03:48:46.814Z,18.67
2018-08-09T03:51:14.983Z,18.23
2018-08-09T03:53:43.145Z,16.15
2018-08-09T03:56:11.286Z,18.83
2018-08-09T03:58:39.421Z,18.33
2018-08-09T04:01:07.604Z,18.67
2018-08-09T04:03:35.745Z,17.83
2018-08-09T04:06:03.853Z,20.97
2018-08-09T04:08:32.150Z,20.33
2018-08-09T04:11:00.300Z,21.60
2018-08-09T04:13:28.497Z,19.53
2018-08-09T04:15:56.692Z,18.37
2018-08-09T04:18:24.836Z,17.97
2018-08-09T04:20:52.989Z,18.03
2018-08-09T04:23:21.124Z,17.67
2018-08-09T04:25:49.263Z,16.10
2018-08-09T04:28:17.402Z,16.20
2018-08-09T04:30:45.555Z,15.93
2018-08-09T04:33:13.701Z,18.53
2018-08-09T04:35:41.839Z,17.57
2018-08-09T04:38:09.983Z,16.62
2018-08-09T04:40:38.159Z,18.00
2018-08-09T04:43:06.343Z,20.67
2018-08-09T04:45:34.514Z,20.60
2018-08-09T04:48:02.712Z,18.13
2018-08-09T04:50:30.998Z,18.53
2018-08-09T04:52:59.145Z,19.90
2018-08-09T04:55:27.268Z,17.47
2018-08-09T04:57:55.503Z,16.97
2018-08-09T05:00:23.667Z,18.37
2018-08-09T05:02:51.784Z,15.87
2018-08-09T05:05:19.952Z,15.40
2018-08-09T05:07:48.120Z,15.20
2018-08-09T05:10:16.311Z,16.33
2018-08-09T05:12:44.450Z,15.73
2018-08-09T05:15:13.212Z,16.20
2018-08-09T05:17:41.353Z,15.97
2018-08-09T05:20:09.555Z,16.37
2018-08-09T05:22:37.746Z,18.92
2018-08-09T05:25:06.091Z,16.17
2018-08-09T05:27:34.236Z,19.32
2018-08-09T05:30:02.415Z,18.27
2018-08-09T05:32:30.618Z,18.87
2018-08-09T05:34:58.767Z,16.93
2018-08-09T05:37:26.910Z,17.85
2018-08-09T05:39:55.102Z,18.67
2018-08-09T05:42:23.231Z,17.77
2018-08-09T05:44:51.368Z,17.10
2018-08-09T05:47:19.555Z,17.30
2018-08-09T05:49:47.715Z,16.40
2018-08-09T05:52:15.858Z,18.35
2018-08-09T05:54:45.205Z,17.00
2018-08-09T05:57:13.359Z,16.43
2018-08-09T05:59:41.522Z,16.17
2018-08-09T06:02:09.678Z,17.95
2018-08-09T06:04:38.875Z,15.30
2018-08-09T06:07:07.227Z,16.67
2018-08-09T06:09:36.020Z,15.50
2018-08-09T06:12:04.241Z,14.20
2018-08-09T06:14:32.399Z,14.80
2018-08-09T06:17:00.556Z,13.47
2018-08-09T06:19:28.734Z,13.50
2018-08-09T06:21:56.951Z,10.95
2018-08-09T06:24:25.099Z,10.73
2018-08-09T06:26:53.280Z,12.33
2018-08-09T06:29:21.440Z,12.25
2018-08-09T06:31:49.694Z,14.30
2018-08-09T06:34:18.078Z,12.80
2018-08-09T06:36:46.256Z,11.40
2018-08-09T06:39:14.439Z,12.13
2018-08-09T06:41:42.589Z,12.57
2018-08-09T06:44:10.819Z,12.05
2018-08-09T06:46:39.072Z,14.00
2018-08-09T06:49:07.342Z,12.83
2018-08-09T06:51:35.520Z,17.27
2018-08-09T06:54:03.683Z,14.07
2018-08-09T06:56:31.868Z,13.53
2018-08-09T06:59:00.041Z,14.35
2018-08-09T07:01:28.178Z,12.03
2018-08-09T07:03:56.323Z,15.10
2018-08-09T07:06:25.405Z,13.80
2018-08-09T07:08:53.607Z,12.03
2018-08-09T07:11:24.333Z,12.43
2018-08-09T07:13:53.080Z,13.13
2018-08-09T07:16:21.723Z,10.90
2018-08-09T07:18:50.579Z,11.05
2018-08-09T07:21:19.281Z,11.03
2018-08-09T07:23:48.208Z,10.73
2018-08-09T07:26:16.444Z,14.63
2018-08-09T07:28:44.672Z,11.22
2018-08-09T07:31:12.878Z,12.63
2018-08-09T07:33:41.067Z,9.77
2018-08-09T07:36:09.206Z,11.73
2018-08-09T07:38:37.701Z,9.43
2018-08-09T07:41:05.855Z,8.23
2018-08-09T07:43:34.150Z,11.23
2018-08-09T07:46:02.307Z,9.80
2018-08-09T07:48:30.486Z,13.07
2018-08-09T07:50:58.635Z,10.60
2018-08-09T07:53:26.810Z,7.37
2018-08-09T07:55:54.974Z,7.80
2018-08-09T07:58:23.103Z,9.60
2018-08-09T08:00:51.332Z,10.90
2018-08-09T08:03:19.506Z,7.80
2018-08-09T08:05:47.732Z,9.43
2018-08-09T08:08:15.866Z,6.78
2018-08-09T08:10:43.981Z,9.17
2018-08-09T08:13:12.170Z,7.57
2018-08-09T08:15:40.289Z,8.35
2018-08-09T08:18:08.523Z,9.93
2018-08-09T08:20:36.757Z,9.17
2018-08-09T08:23:04.951Z,7.50
2018-08-09T08:25:33.082Z,8.07
2018-08-09T08:28:01.308Z,7.73
2018-08-09T08:30:29.539Z,9.80
2018-08-09T08:32:57.694Z,8.97
2018-08-09T08:35:25.821Z,5.70
2018-08-09T08:37:53.981Z,8.55
2018-08-09T08:40:22.134Z,7.60
2018-08-09T08:42:50.853Z,9.87
2018-08-09T08:45:19.012Z,8.63
2018-08-09T08:47:47.179Z,8.03
2018-08-09T08:50:15.321Z,6.67
2018-08-09T08:52:43.462Z,7.73
2018-08-09T08:55:12.582Z,7.17
2018-08-09T08:57:40.652Z,9.77
2018-08-09T09:00:10.659Z,10.43
2018-08-09T09:02:39.380Z,6.07
2018-08-09T09:05:09.373Z,7.50
2018-08-09T09:07:38.385Z,8.27
2018-08-09T09:10:07.475Z,6.90
2018-08-09T09:12:35.661Z,8.57
2018-08-09T09:15:06.322Z,8.33
2018-08-09T09:17:34.492Z,7.57
2018-08-09T09:20:02.983Z,6.60
2018-08-09T09:22:31.122Z,8.25
2018-08-09T09:24:59.319Z,8.93
2018-08-09T09:27:27.517Z,8.40
2018-08-09T09:29:55.679Z,7.90
2018-08-09T09:32:24.182Z,6.43
2018-08-09T09:34:52.352Z,7.97
2018-08-09T09:37:20.578Z,8.75
2018-08-09T09:39:48.710Z,7.17
2018-08-09T09:42:16.872Z,8.27
2018-08-09T09:44:45.042Z,6.50
2018-08-09T09:47:13.210Z,10.77
2018-08-09T09:49:41.386Z,7.07
2018-08-09T09:52:09.666Z,6.80
2018-08-09T09:54:37.838Z,6.40
2018-08-09T09:57:05.967Z,6.90
2018-08-09T09:59:34.097Z,6.83
2018-08-09T10:02:02.317Z,7.40
2018-08-09T10:04:30.400Z,7.37
2018-08-09T10:06:58.598Z,7.90
2018-08-09T10:09:26.728Z,7.77
2018-08-09T10:11:54.862Z,6.40
2018-08-09T10:14:22.994Z,9.00
2018-08-09T10:16:52.015Z,7.47
2018-08-09T10:19:20.210Z,7.80
2018-08-09T10:21:48.359Z,9.33
2018-08-09T10:24:16.527Z,9.00
2018-08-09T10:26:44.683Z,7.40
2018-08-09T10:29:12.822Z,5.73
2018-08-09T10:31:40.954Z,7.00
2018-08-09T10:34:09.095Z,6.70
2018-08-09T10:36:37.247Z,7.77
2018-08-09T10:39:09.391Z,8.85
2018-08-09T10:41:37.519Z,10.30
2018-08-09T10:44:05.630Z,8.13
2018-08-09T10:46:33.774Z,7.07
2018-08-09T10:49:02.002Z,6.00
2018-08-09T10:51:30.078Z,7.03
2018-08-09T10:53:59.091Z,7.28
2018-08-09T10:56:27.219Z,7.53
2018-08-09T10:58:55.357Z,7.77
2018-08-09T11:01:23.516Z,9.87
2018-08-09T11:03:51.807Z,9.30
2018-08-09T11:06:19.955Z,9.27
2018-08-09T11:08:48.082Z,9.48
2018-08-09T11:11:16.228Z,9.50
2018-08-09T11:13:45.437Z,7.10
2018-08-09T11:16:14.375Z,8.03
2018-08-09T11:18:43.332Z,8.15
2018-08-09T11:21:11.574Z,6.17
2018-08-09T11:23:39.908Z,8.80
2018-08-09T11:26:08.056Z,9.93
2018-08-09T11:28:36.223Z,6.43
2018-08-09T11:31:04.382Z,7.93
2018-08-09T11:33:32.621Z,8.45
2018-08-09T11:36:00.778Z,7.67
2018-08-09T11:38:28.946Z,17.90
2018-08-09T11:40:57.136Z,20.17
2018-08-09T11:43:25.251Z,16.30
2018-08-09T11:45:53.400Z,19.93
2018-08-09T11:48:21.570Z,22.73
2018-08-09T11:50:49.721Z,18.33
2018-08-09T11:53:17.851Z,22.00
2018-08-09T11:55:45.987Z,18.57
2018-08-09T11:58:14.154Z,19.83
2018-08-09T12:00:42.294Z,18.57
2018-08-09T12:03:10.443Z,14.03
2018-08-09T12:05:38.619Z,16.17
2018-08-09T12:08:06.791Z,13.30
2018-08-09T12:10:34.990Z,11.85
2018-08-09T12:13:03.210Z,12.20
2018-08-09T12:15:31.360Z,10.87
2018-08-09T12:17:59.498Z,12.70
2018-08-09T12:20:27.607Z,14.03
2018-08-09T12:22:55.791Z,7.40
2018-08-09T12:25:24.774Z,7.08
2018-08-09T12:27:52.898Z,10.57
2018-08-09T12:30:21.120Z,7.67
2018-08-09T12:32:49.235Z,5.05
2018-08-09T12:35:17.394Z,6.03
2018-08-09T12:37:45.545Z,8.03
2018-08-09T12:40:13.718Z,6.87
2018-08-09T12:42:41.888Z,8.27
2018-08-09T12:45:11.673Z,7.37
2018-08-09T12:47:40.234Z,5.13
2018-08-09T12:50:10.938Z,4.67
2018-08-09T12:52:39.583Z,4.47
2018-08-09T12:55:08.110Z,6.95
2018-08-09T12:57:36.863Z,5.07
2018-08-09T13:00:06.790Z,5.47
2018-08-09T13:02:34.854Z,7.40
2018-08-09T13:05:02.994Z,5.70
2018-08-09T13:07:31.135Z,5.20
2018-08-09T13:09:59.323Z,4.87
2018-08-09T13:12:28.613Z,6.27
2018-08-09T13:14:56.758Z,5.65
2018-08-09T13:17:24.996Z,7.63
2018-08-09T13:19:53.150Z,5.77
2018-08-09T13:22:21.262Z,4.60
2018-08-09T13:24:49.428Z,5.63
2018-08-09T13:27:17.582Z,4.25
2018-08-09T13:29:45.698Z,4.63
2018-08-09T13:32:13.867Z,3.20
2018-08-09T13:34:42.044Z,5.25
2018-08-09T13:37:10.194Z,4.13
2018-08-09T13:39:38.349Z,4.20
2018-08-09T13:42:06.482Z,4.30
2018-08-09T13:44:34.650Z,3.10
2018-08-09T13:47:02.773Z,4.60
2018-08-09T13:49:30.889Z,2.85
2018-08-09T13:51:59.027Z,4.03
2018-08-09T13:54:27.152Z,5.23
2018-08-09T13:56:55.298Z,6.37
2018-08-09T13:59:23.451Z,4.30
2018-08-09T14:01:51.593Z,5.63
2018-08-09T14:04:20.158Z,3.62
2018-08-09T14:06:48.307Z,3.93
2018-08-09T14:09:16.470Z,4.17
2018-08-09T14:11:44.651Z,3.95
2018-08-09T14:14:12.935Z,5.10
2018-08-09T14:16:41.109Z,4.57
2018-08-09T14:19:09.992Z,3.65
2018-08-09T14:21:38.511Z,3.77
2018-08-09T14:24:07.267Z,6.10
2018-08-09T14:26:35.418Z,3.60
2018-08-09T14:29:03.666Z,6.05
2018-08-09T14:31:31.807Z,5.23
2018-08-09T14:33:59.950Z,4.63
2018-08-09T14:36:28.120Z,3.40
2018-08-09T14:38:56.244Z,3.07
2018-08-09T14:41:24.378Z,3.47
2018-08-09T14:43:52.571Z,4.92
2018-08-09T14:46:20.743Z,3.33
2018-08-09T14:48:48.884Z,3.87
2018-08-09T14:51:17.050Z,2.90
2018-08-09T14:53:45.275Z,5.20
2018-08-09T14:56:13.351Z,3.57
2018-08-09T14:58:41.513Z,2.15
2018-08-09T15:01:09.701Z,5.07
2018-08-09T15:03:37.818Z,4.40
2018-08-09T15:06:06.198Z,3.55
2018-08-09T15:08:34.352Z,3.63
2018-08-09T15:11:02.533Z,5.73
2018-08-09T15:13:31.046Z,2.87
2018-08-09T15:15:59.183Z,4.30
2018-08-09T15:18:27.364Z,3.73
2018-08-09T15:20:55.550Z,6.28
2018-08-09T15:23:23.694Z,3.37
2018-08-09T15:25:51.890Z,5.63
2018-08-09T15:28:20.035Z,3.70
2018-08-09T15:30:48.205Z,3.87
2018-08-09T15:33:16.303Z,3.37
2018-08-09T15:35:45.450Z,3.37
2018-08-09T15:38:13.785Z,3.75
2018-08-09T15:40:41.878Z,4.10
2018-08-09T15:43:10.012Z,3.40
2018-08-09T15:45:38.151Z,3.58
2018-08-09T15:48:06.665Z,4.10
2018-08-09T15:50:34.810Z,3.60
2018-08-09T15:53:03.042Z,3.05
2018-08-09T15:55:31.235Z,4.70
2018-08-09T15:57:59.458Z,5.17
2018-08-09T16:00:27.675Z,4.60
2018-08-09T16:02:55.896Z,3.20
2018-08-09T16:05:24.098Z,3.70
2018-08-09T16:07:52.306Z,4.65
2018-08-09T16:10:20.485Z,4.60
2018-08-09T16:12:48.662Z,4.80
2018-08-09T16:15:18.145Z,5.60
2018-08-09T16:17:47.228Z,4.10
2018-08-09T16:20:15.587Z,5.00
2018-08-09T16:22:45.564Z,3.70
2018-08-09T16:25:14.983Z,2.03
2018-08-09T16:27:43.274Z,2.40
2018-08-09T16:30:15.926Z,4.00
2018-08-09T16:32:44.103Z,3.57
2018-08-09T16:35:12.844Z,3.07
2018-08-09T16:37:41.761Z,2.33
2018-08-09T16:40:12.042Z,2.73
2018-08-09T16:42:40.760Z,2.90
2018-08-09T16:45:09.996Z,3.12
2018-08-09T16:47:38.427Z,3.43
2018-08-09T16:50:07.644Z,3.80
2018-08-09T16:52:35.948Z,2.70
2018-08-09T16:55:04.823Z,3.80
2018-08-09T16:57:32.970Z,1.80
2018-08-09T17:00:01.144Z,4.77
2018-08-09T17:02:29.322Z,3.13
2018-08-09T17:04:57.619Z,4.63
2018-08-09T17:07:25.791Z,2.70
2018-08-09T17:09:53.933Z,4.40
2018-08-09T17:12:22.105Z,2.70
2018-08-09T17:14:50.247Z,2.60
2018-08-09T17:17:18.389Z,3.47
2018-08-09T17:19:46.510Z,2.80
2018-08-09T17:22:14.726Z,3.07
2018-08-09T17:24:42.951Z,2.83
2018-08-09T17:27:11.128Z,3.80
2018-08-09T17:29:39.414Z,3.42
2018-08-09T17:32:07.682Z,2.63
2018-08-09T17:34:35.815Z,1.77
2018-08-09T17:37:04.019Z,2.35
2018-08-09T17:39:32.163Z,3.57
2018-08-09T17:42:00.338Z,4.03
2018-08-09T17:44:28.516Z,4.50
2018-08-09T17:46:56.675Z,2.57
2018-08-09T17:49:24.782Z,2.10
2018-08-09T17:51:53.277Z,3.00
2018-08-09T17:54:21.867Z,3.60
2018-08-09T17:56:50.895Z,3.45
2018-08-09T17:59:20.094Z,2.92
2018-08-09T18:01:48.639Z,3.50
2018-08-09T18:04:17.099Z,2.22
2018-08-09T18:06:45.304Z,3.00
2018-08-09T18:09:13.551Z,2.80
2018-08-09T18:11:41.819Z,2.33
2018-08-09T18:14:09.988Z,3.67
2018-08-09T18:16:38.576Z,5.15
2018-08-09T18:19:07.449Z,3.03
2018-08-09T18:21:35.677Z,2.40
2018-08-09T18:24:03.943Z,2.47
2018-08-09T18:26:32.220Z,4.78
2018-08-09T18:29:00.507Z,2.97
2018-08-09T18:31:28.711Z,2.53
2018-08-09T18:33:57.024Z,3.67
2018-08-09T18:36:25.216Z,1.60
2018-08-09T18:38:53.419Z,2.00
2018-08-09T18:41:21.658Z,2.10
2018-08-09T18:43:49.907Z,1.50
2018-08-09T18:46:18.114Z,2.23
2018-08-09T18:48:46.977Z,2.10
2018-08-09T18:51:15.231Z,2.50
2018-08-09T18:53:43.427Z,2.73
2018-08-09T18:56:11.619Z,1.70
2018-08-09T18:58:39.799Z,3.03
2018-08-09T19:01:09.571Z,1.73
2018-08-09T19:03:37.897Z,1.73
2018-08-09T19:06:06.189Z,2.57
2018-08-09T19:08:34.620Z,2.92
2018-08-09T19:11:03.187Z,1.57
2018-08-09T19:13:31.357Z,1.10
2018-08-09T19:15:59.559Z,1.30
2018-08-09T19:18:27.772Z,2.00
2018-08-09T19:20:55.898Z,2.10
2018-08-09T19:23:24.099Z,1.17
2018-08-09T19:25:52.817Z,1.30
2018-08-09T19:28:20.985Z,1.10
2018-08-09T19:30:49.295Z,1.13
2018-08-09T19:33:17.544Z,1.30
2018-08-09T19:35:45.850Z,2.63
2018-08-09T19:38:14.053Z,1.50
2018-08-09T19:40:42.550Z,2.22
2018-08-09T19:43:11.051Z,1.53
2018-08-09T19:45:39.260Z,2.20
2018-08-09T19:48:07.500Z,2.07
2018-08-09T19:50:35.631Z,1.10
2018-08-09T19:53:03.879Z,1.30
2018-08-09T19:55:32.522Z,1.20
2018-08-09T19:58:00.940Z,1.23
2018-08-09T20:00:30.479Z,1.50
2018-08-09T20:02:58.661Z,1.23
2018-08-09T20:05:26.841Z,2.63
2018-08-09T20:07:55.175Z,1.67
2018-08-09T20:10:23.414Z,1.53
2018-08-09T20:12:51.652Z,1.40
2018-08-09T20:15:21.772Z,1.70
2018-08-09T20:17:50.090Z,3.07
2018-08-09T20:20:19.867Z,2.07
2018-08-09T20:22:49.074Z,2.97
2018-08-09T20:25:17.229Z,1.33
2018-08-09T20:27:46.265Z,2.10
2018-08-09T20:30:16.092Z,1.93
2018-08-09T20:32:45.104Z,1.40
2018-08-09T20:35:14.908Z,1.37
2018-08-09T20:37:44.124Z,1.77
2018-08-09T20:40:12.918Z,1.50
2018-08-09T20:42:41.606Z,1.80
2018-08-09T20:45:13.934Z,1.67
2018-08-09T20:47:42.182Z,2.27
2018-08-09T20:50:13.483Z,1.93
2018-08-09T20:52:42.323Z,2.63
2018-08-09T20:55:12.461Z,1.57
2018-08-09T20:57:42.472Z,1.53
2018-08-09T21:00:14.418Z,1.23
2018-08-09T21:02:43.848Z,1.40
2018-08-09T21:05:17.430Z,1.20
2018-08-09T21:07:47.874Z,1.47
2018-08-09T21:10:16.673Z,1.27
2018-08-09T21:12:45.073Z,1.40
2018-08-09T21:15:13.337Z,1.50
2018-08-09T21:17:41.726Z,1.62
2018-08-09T21:20:10.127Z,1.53
2018-08-09T21:22:38.916Z,1.30
2018-08-09T21:25:08.072Z,1.50
2018-08-09T21:27:36.235Z,1.62
2018-08-09T21:30:05.507Z,1.73
2018-08-09T21:32:34.095Z,2.50
2018-08-09T21:35:02.723Z,1.30
2018-08-09T21:37:31.007Z,2.17
2018-08-09T21:39:59.565Z,1.50
2018-08-09T21:42:27.780Z,1.47
2018-08-09T21:44:56.244Z,1.20
2018-08-09T21:47:24.497Z,2.40
2018-08-09T21:49:52.691Z,1.30
2018-08-09T21:52:20.896Z,2.37
2018-08-09T21:54:49.203Z,2.43
2018-08-09T21:57:17.383Z,1.10
2018-08-09T21:59:46.955Z,1.30
2018-08-09T22:02:17.423Z,2.03
2018-08-09T22:04:52.146Z,1.80
2018-08-09T22:07:25.835Z,1.47
2018-08-09T22:09:59.484Z,1.73
2018-08-09T22:12:33.221Z,1.07
2018-08-09T22:15:06.879Z,1.70
2018-08-09T22:17:40.536Z,1.30
2018-08-09T22:20:14.248Z,2.10
2018-08-09T22:22:42.446Z,1.70
2018-08-09T22:25:10.697Z,1.60
2018-08-09T22:27:38.903Z,1.30
2018-08-09T22:30:10.012Z,0.70
2018-08-09T22:32:41.134Z,0.70
2018-08-09T22:35:09.470Z,0.50
2018-08-09T22:37:38.522Z,0.57
2018-08-09T22:40:07.280Z,0.60
2018-08-09T22:42:35.569Z,0.73
2018-08-09T22:45:04.386Z,0.80
2018-08-09T22:47:32.700Z,1.30
2018-08-09T22:50:00.878Z,1.07
2018-08-09T22:52:29.109Z,1.00
2018-08-09T22:54:57.312Z,1.40
2018-08-09T22:57:26.051Z,0.87
2018-08-09T22:59:54.206Z,1.00
2018-08-09T23:02:23.106Z,0.70
2018-08-09T23:04:51.721Z,0.80
2018-08-09T23:07:19.981Z,0.80
2018-08-09T23:09:48.675Z,1.17
2018-08-09T23:12:18.169Z,1.63
2018-08-09T23:14:47.284Z,1.93
2018-08-09T23:17:16.407Z,2.58
2018-08-09T23:19:44.819Z,1.50
2018-08-09T23:22:17.659Z,2.30
2018-08-09T23:24:46.948Z,0.93
2018-08-09T23:27:15.688Z,1.77
2018-08-09T23:29:47.127Z,1.23
2018-08-09T23:32:17.324Z,1.30
2018-08-09T23:34:45.711Z,2.27
2018-08-09T23:37:14.676Z,2.60
2018-08-09T23:39:43.680Z,1.65
2018-08-09T23:42:12.141Z,1.45
2018-08-09T23:44:40.424Z,1.53
2018-08-09T23:47:08.693Z,3.02
2018-08-09T23:49:37.049Z,1.70
2018-08-09T23:52:06.213Z,1.20
2018-08-09T23:54:34.552Z,1.07
2018-08-09T23:57:02.837Z,2.07
2018-08-09T23:59:31.038Z,3.47
